createdAt,value
2023-03-28T00:00:51.014Z,0.63
2023-03-28T00:03:54.886Z,0.62
2023-03-28T00:06:57.652Z,0.56
2023-03-28T00:10:00.538Z,0.58
2023-03-28T00:13:03.210Z,0.48
2023-03-28T00:16:12.950Z,0.53
2023-03-28T00:19:18.888Z,0.48
2023-03-28T00:22:21.711Z,0.49
2023-03-28T00:25:24.976Z,0.46
2023-03-28T00:28:27.840Z,0.40
2023-03-28T00:31:32.251Z,0.36
2023-03-28T00:34:35.265Z,0.37
2023-03-28T00:37:37.884Z,0.37
2023-03-28T00:40:42.163Z,0.29
2023-03-28T00:43:46.910Z,0.33
2023-03-28T00:46:49.980Z,0.38
2023-03-28T00:50:05.212Z,0.29
2023-03-28T00:53:21.664Z,0.33
2023-03-28T00:56:27.048Z,0.27
2023-03-28T00:59:32.047Z,0.23
2023-03-28T01:02:34.776Z,0.13
2023-03-28T01:05:37.901Z,0.21
2023-03-28T01:08:42.659Z,0.24
2023-03-28T01:11:46.216Z,0.32
2023-03-28T01:14:48.843Z,0.32
2023-03-28T01:17:52.509Z,0.39
2023-03-28T01:21:06.602Z,0.32
2023-03-28T01:24:28.475Z,0.33
2023-03-28T01:27:52.111Z,0.42
2023-03-28T01:31:18.984Z,0.40
2023-03-28T01:34:51.934Z,0.48
2023-03-28T01:38:02.153Z,0.43
2023-03-28T01:41:23.339Z,0.48
2023-03-28T01:44:41.158Z,0.49
2023-03-28T01:48:27.023Z,0.45
2023-03-28T01:51:48.718Z,0.42
2023-03-28T01:55:27.156Z,0.41
2023-03-28T01:58:59.824Z,0.31
2023-03-28T02:02:10.362Z,0.20
2023-03-28T02:05:15.782Z,0.13
2023-03-28T02:08:19.768Z,0.18
2023-03-28T02:11:24.649Z,0.22
2023-03-28T02:14:31.114Z,0.14
2023-03-28T02:17:39.195Z,0.12
2023-03-28T02:20:50.218Z,0.15
2023-03-28T02:23:56.338Z,0.14
2023-03-28T02:26:59.178Z,0.09
2023-03-28T02:30:03.385Z,-0.01
2023-03-28T02:33:11.265Z,0.07
2023-03-28T02:36:43.683Z,0.11
2023-03-28T02:39:59.949Z,0.09
2023-03-28T02:43:08.746Z,-0.02
2023-03-28T02:46:20.137Z,-0.08
2023-03-28T02:49:33.056Z,-0.11
2023-03-28T02:53:04.472Z,-0.15
2023-03-28T02:56:12.364Z,-0.11
2023-03-28T02:59:41.338Z,-0.18
2023-03-28T03:02:46.717Z,-0.27
2023-03-28T03:05:49.554Z,-0.31
2023-03-28T03:08:52.396Z,-0.35
2023-03-28T03:11:55.577Z,-0.44
2023-03-28T03:15:01.286Z,-0.47
2023-03-28T03:18:13.694Z,-0.47
2023-03-28T03:21:16.688Z,-0.54
2023-03-28T03:24:20.099Z,-0.55
2023-03-28T03:27:22.760Z,-0.49
2023-03-28T03:30:27.280Z,-0.36
2023-03-28T03:33:32.582Z,-0.31
2023-03-28T03:36:36.290Z,-0.35
2023-03-28T03:39:41.583Z,-0.36
2023-03-28T03:42:44.487Z,-0.36
2023-03-28T03:45:47.068Z,-0.44
2023-03-28T03:48:50.555Z,-0.47
2023-03-28T03:51:53.486Z,-0.56
2023-03-28T03:54:56.563Z,-0.65
2023-03-28T03:58:00.163Z,-0.57
2023-03-28T04:01:06.197Z,-0.52
2023-03-28T04:04:09.688Z,-0.50
2023-03-28T04:07:13.301Z,-0.42
2023-03-28T04:10:16.939Z,-0.38
2023-03-28T04:13:21.182Z,-0.38
2023-03-28T04:16:26.139Z,-0.35
2023-03-28T04:19:29.759Z,-0.40
2023-03-28T04:22:35.935Z,-0.40
2023-03-28T04:25:49.675Z,-0.30
2023-03-28T04:28:53.385Z,-0.20
2023-03-28T04:32:00.251Z,-0.15
2023-03-28T04:35:07.938Z,0.00
2023-03-28T04:38:10.667Z,-0.01
2023-03-28T04:41:28.409Z,0.10
2023-03-28T04:44:32.906Z,0.11
2023-03-28T04:47:40.220Z,0.16
2023-03-28T04:50:43.343Z,0.25
2023-03-28T04:53:48.378Z,0.15
2023-03-28T04:56:53.425Z,0.40
2023-03-28T04:59:57.061Z,0.43
2023-03-28T05:03:01.241Z,0.47
2023-03-28T05:06:04.976Z,0.61
2023-03-28T05:09:07.799Z,0.76
2023-03-28T05:12:11.186Z,0.79
2023-03-28T05:15:23.247Z,0.92
2023-03-28T05:18:27.954Z,0.96
2023-03-28T05:21:31.310Z,1.12
2023-03-28T05:24:36.452Z,1.58
2023-03-28T05:27:45.803Z,2.10
2023-03-28T05:30:49.549Z,1.97
2023-03-28T05:33:53.055Z,1.65
2023-03-28T05:36:57.342Z,1.67
2023-03-28T05:40:00.155Z,1.77
2023-03-28T05:43:03.160Z,2.26
2023-03-28T05:46:06.638Z,2.57
2023-03-28T05:49:09.811Z,2.47
2023-03-28T05:52:12.527Z,2.51
2023-03-28T05:55:15.933Z,2.68
2023-03-28T05:58:20.260Z,4.03
2023-03-28T06:01:27.855Z,3.53
2023-03-28T06:04:31.438Z,3.38
2023-03-28T06:07:42.040Z,2.92
2023-03-28T06:10:47.461Z,2.59
2023-03-28T06:13:50.596Z,2.48
2023-03-28T06:16:53.663Z,2.51
2023-03-28T06:19:56.909Z,2.63
2023-03-28T06:23:00.129Z,3.11
2023-03-28T06:26:03.493Z,3.18
2023-03-28T06:29:07.781Z,3.62
2023-03-28T06:32:12.724Z,3.84
2023-03-28T06:35:16.569Z,4.13
2023-03-28T06:38:19.281Z,4.59
2023-03-28T06:41:24.896Z,4.94
2023-03-28T06:44:27.613Z,5.41
2023-03-28T06:47:31.494Z,5.87
2023-03-28T06:50:35.707Z,5.58
2023-03-28T06:53:39.151Z,5.57
2023-03-28T06:56:42.210Z,5.77
2023-03-28T06:59:45.361Z,6.27
2023-03-28T07:02:49.235Z,6.30
2023-03-28T07:05:53.138Z,6.08
2023-03-28T07:08:59.519Z,5.89
2023-03-28T07:12:04.264Z,6.94
2023-03-28T07:15:08.702Z,7.08
2023-03-28T07:18:15.069Z,6.63
2023-03-28T07:21:18.934Z,7.43
2023-03-28T07:24:22.107Z,7.60
2023-03-28T07:27:26.017Z,8.12
2023-03-28T07:30:31.415Z,7.26
2023-03-28T07:33:37.987Z,8.15
2023-03-28T07:36:43.480Z,7.86
2023-03-28T07:39:46.760Z,7.01
2023-03-28T07:42:50.568Z,6.45
2023-03-28T07:46:03.204Z,7.53
2023-03-28T07:49:06.761Z,7.26
2023-03-28T07:52:11.682Z,6.21
2023-03-28T07:55:15.075Z,5.91
2023-03-28T07:58:21.803Z,6.00
2023-03-28T08:01:25.044Z,6.14
2023-03-28T08:04:28.796Z,6.67
2023-03-28T08:07:34.145Z,6.09
2023-03-28T08:10:37.505Z,5.63
2023-03-28T08:13:40.446Z,5.40
2023-03-28T08:16:45.434Z,5.22
2023-03-28T08:19:48.623Z,5.18
2023-03-28T08:22:55.706Z,5.11
2023-03-28T08:26:06.224Z,5.09
2023-03-28T08:29:09.582Z,5.08
2023-03-28T08:32:19.965Z,5.17
2023-03-28T08:35:23.145Z,5.89
2023-03-28T08:38:27.369Z,5.58
2023-03-28T08:41:58.341Z,4.67
2023-03-28T08:45:10.812Z,3.99
2023-03-28T08:48:19.035Z,3.76
2023-03-28T08:51:27.011Z,3.82
2023-03-28T08:54:49.411Z,4.58
2023-03-28T08:57:54.473Z,4.81
2023-03-28T09:00:58.562Z,5.09
2023-03-28T09:04:01.863Z,5.41
2023-03-28T09:07:24.300Z,5.20
2023-03-28T09:10:36.089Z,3.78
2023-03-28T09:14:25.669Z,3.22
2023-03-28T09:17:37.704Z,2.71
2023-03-28T09:20:43.101Z,2.96
2023-03-28T09:24:10.127Z,3.29
2023-03-28T09:27:17.607Z,3.59
2023-03-28T09:30:26.204Z,3.65
2023-03-28T09:33:35.924Z,3.79
2023-03-28T09:36:49.127Z,4.00
2023-03-28T09:39:55.808Z,4.17
2023-03-28T09:43:16.286Z,3.97
2023-03-28T09:46:41.097Z,3.31
2023-03-28T09:49:44.639Z,2.53
2023-03-28T09:52:49.709Z,1.78
2023-03-28T09:56:03.912Z,1.29
2023-03-28T09:59:26.211Z,0.84
2023-03-28T10:02:32.995Z,0.78
2023-03-28T10:05:40.200Z,0.93
2023-03-28T10:08:44.256Z,2.35
2023-03-28T10:11:59.522Z,4.14
2023-03-28T10:15:04.342Z,5.39
2023-03-28T10:18:08.064Z,5.82
2023-03-28T10:21:21.078Z,6.42
2023-03-28T10:24:25.495Z,6.85
2023-03-28T10:27:31.928Z,7.26
2023-03-28T10:30:36.470Z,7.16
2023-03-28T10:33:44.009Z,7.96
2023-03-28T10:36:48.058Z,8.41
2023-03-28T10:40:05.822Z,8.23
2023-03-28T10:43:14.338Z,8.12
2023-03-28T10:46:33.138Z,8.04
2023-03-28T10:49:51.718Z,8.91
2023-03-28T10:53:06.154Z,9.24
2023-03-28T10:56:23.145Z,9.24
2023-03-28T10:59:29.581Z,9.55
2023-03-28T11:02:42.619Z,9.10
2023-03-28T11:06:08.775Z,7.31
2023-03-28T11:09:30.037Z,8.02
2023-03-28T11:12:56.631Z,8.30
2023-03-28T11:16:34.340Z,9.56
2023-03-28T11:19:51.156Z,8.11
2023-03-28T11:23:23.502Z,6.82
2023-03-28T11:27:04.973Z,8.57
2023-03-28T11:30:26.752Z,10.13
2023-03-28T11:33:36.302Z,10.15
2023-03-28T11:36:46.581Z,9.98
2023-03-28T11:39:55.626Z,9.86
2023-03-28T11:43:04.734Z,10.25
2023-03-28T11:46:11.477Z,9.96
2023-03-28T11:49:38.583Z,9.87
2023-03-28T11:52:49.440Z,9.72
2023-03-28T11:56:18.035Z,9.58
2023-03-28T11:59:45.081Z,8.42
2023-03-28T12:02:52.981Z,8.33
2023-03-28T12:06:09.680Z,8.54
2023-03-28T12:09:28.170Z,9.36
2023-03-28T12:13:01.880Z,9.60
2023-03-28T12:16:08.897Z,9.29
2023-03-28T12:19:15.352Z,9.50
2023-03-28T12:22:21.456Z,8.59
2023-03-28T12:25:47.922Z,7.74
2023-03-28T12:28:53.829Z,7.13
2023-03-28T12:32:24.321Z,6.89
2023-03-28T12:35:53.895Z,6.78
2023-03-28T12:39:17.688Z,6.61
2023-03-28T12:42:25.370Z,6.95
2023-03-28T12:45:33.465Z,6.97
2023-03-28T12:48:45.223Z,6.85
2023-03-28T12:52:01.376Z,6.85
2023-03-28T12:55:09.335Z,6.71
2023-03-28T12:58:30.189Z,6.39
2023-03-28T13:01:52.087Z,6.47
2023-03-28T13:05:00.739Z,6.78
2023-03-28T13:08:09.960Z,7.07
2023-03-28T13:11:17.035Z,7.34
2023-03-28T13:14:34.875Z,7.32
2023-03-28T13:17:42.489Z,7.03
2023-03-28T13:20:47.093Z,6.91
2023-03-28T13:23:50.777Z,7.00
2023-03-28T13:27:14.750Z,7.01
2023-03-28T13:30:20.478Z,6.79
2023-03-28T13:33:28.262Z,6.72
2023-03-28T13:36:35.496Z,6.61
2023-03-28T13:39:38.034Z,6.85
2023-03-28T13:42:57.629Z,6.57
2023-03-28T13:46:04.273Z,6.36
2023-03-28T13:49:10.428Z,6.50
2023-03-28T13:52:20.658Z,6.75
2023-03-28T13:55:25.545Z,6.89
2023-03-28T13:58:29.544Z,6.82
2023-03-28T14:01:45.007Z,7.26
2023-03-28T14:05:04.306Z,7.08
2023-03-28T14:08:12.939Z,7.02
2023-03-28T14:11:18.177Z,7.32
2023-03-28T14:14:57.540Z,7.18
2023-03-28T14:18:02.000Z,6.97
2023-03-28T14:21:07.918Z,6.91
2023-03-28T14:24:12.867Z,6.94
2023-03-28T14:27:27.179Z,7.04
2023-03-28T14:30:38.232Z,7.04
2023-03-28T14:33:41.941Z,6.68
2023-03-28T14:37:06.458Z,6.62
2023-03-28T14:40:25.760Z,6.74
2023-03-28T14:43:29.853Z,6.85
2023-03-28T14:46:33.297Z,7.04
2023-03-28T14:49:37.547Z,7.21
2023-03-28T14:52:41.173Z,7.23
2023-03-28T14:55:44.154Z,7.10
2023-03-28T14:58:50.168Z,6.80
2023-03-28T15:01:53.535Z,6.46
2023-03-28T15:05:09.764Z,6.25
2023-03-28T15:08:36.922Z,6.12
2023-03-28T15:12:04.361Z,6.03
2023-03-28T15:15:38.443Z,5.94
2023-03-28T15:19:14.342Z,5.98
2023-03-28T15:22:22.796Z,6.07
2023-03-28T15:25:26.709Z,6.12
2023-03-28T15:28:30.284Z,5.98
2023-03-28T15:31:33.673Z,5.89
2023-03-28T15:34:46.010Z,5.81
2023-03-28T15:37:48.804Z,5.84
2023-03-28T15:41:06.476Z,5.77
2023-03-28T15:44:30.285Z,5.82
2023-03-28T15:47:35.528Z,5.78
2023-03-28T15:50:38.628Z,5.77
2023-03-28T15:53:42.208Z,5.89
2023-03-28T15:56:47.049Z,5.77
2023-03-28T15:59:56.025Z,5.69
2023-03-28T16:03:17.761Z,5.65
2023-03-28T16:06:31.682Z,5.68
2023-03-28T16:09:35.851Z,5.61
2023-03-28T16:12:39.062Z,5.63
2023-03-28T16:15:44.089Z,5.68
2023-03-28T16:18:48.374Z,5.72
2023-03-28T16:21:51.574Z,5.42
2023-03-28T16:24:54.830Z,5.32
2023-03-28T16:27:57.874Z,5.26
2023-03-28T16:31:00.944Z,5.21
2023-03-28T16:34:03.538Z,5.34
2023-03-28T16:37:08.949Z,5.16
2023-03-28T16:40:11.807Z,4.99
2023-03-28T16:43:15.698Z,5.02
2023-03-28T16:46:18.211Z,4.92
2023-03-28T16:49:21.234Z,4.79
2023-03-28T16:52:23.812Z,4.65
2023-03-28T16:55:26.748Z,4.57
2023-03-28T16:58:29.808Z,4.52
2023-03-28T17:01:33.062Z,4.41
2023-03-28T17:04:36.127Z,4.32
2023-03-28T17:07:38.883Z,4.27
2023-03-28T17:10:43.310Z,4.27
2023-03-28T17:13:47.637Z,4.25
2023-03-28T17:16:50.593Z,4.14
2023-03-28T17:19:53.458Z,4.15
2023-03-28T17:22:57.634Z,4.25
2023-03-28T17:26:01.242Z,4.01
2023-03-28T17:29:07.288Z,4.05
2023-03-28T17:32:10.951Z,3.92
2023-03-28T17:35:14.773Z,3.89
2023-03-28T17:38:17.710Z,3.90
2023-03-28T17:41:23.162Z,3.91
2023-03-28T17:44:26.199Z,3.93
2023-03-28T17:47:30.363Z,3.92
2023-03-28T17:50:33.970Z,3.77
2023-03-28T17:53:38.514Z,3.79
2023-03-28T17:56:41.881Z,3.80
2023-03-28T17:59:44.655Z,3.75
2023-03-28T18:02:50.844Z,3.79
2023-03-28T18:06:00.198Z,3.81
2023-03-28T18:09:04.226Z,3.76
2023-03-28T18:12:08.979Z,3.71
2023-03-28T18:15:11.554Z,3.67
2023-03-28T18:18:14.876Z,3.59
2023-03-28T18:21:17.805Z,3.53
2023-03-28T18:24:21.841Z,3.63
2023-03-28T18:27:24.639Z,3.49
2023-03-28T18:30:27.834Z,3.53
2023-03-28T18:33:31.649Z,3.64
2023-03-28T18:36:37.586Z,3.59
2023-03-28T18:39:41.808Z,3.44
2023-03-28T18:42:45.244Z,3.40
2023-03-28T18:45:54.115Z,3.36
2023-03-28T18:49:00.835Z,3.44
2023-03-28T18:52:06.205Z,3.38
2023-03-28T18:55:10.254Z,3.30
2023-03-28T18:58:13.208Z,3.42
2023-03-28T19:01:16.085Z,3.33
2023-03-28T19:04:20.178Z,3.42
2023-03-28T19:07:23.446Z,3.52
2023-03-28T19:10:27.091Z,3.64
2023-03-28T19:13:30.191Z,3.60
2023-03-28T19:16:32.971Z,3.55
2023-03-28T19:19:37.704Z,3.41
2023-03-28T19:22:41.330Z,3.54
2023-03-28T19:25:44.857Z,3.48
2023-03-28T19:28:49.690Z,3.39
2023-03-28T19:31:53.103Z,3.54
2023-03-28T19:34:55.984Z,3.43
2023-03-28T19:37:59.240Z,3.21
2023-03-28T19:41:04.341Z,3.21
2023-03-28T19:44:08.041Z,3.41
2023-03-28T19:47:10.850Z,3.34
2023-03-28T19:50:14.180Z,3.29
2023-03-28T19:53:16.917Z,3.32
2023-03-28T19:56:20.383Z,3.38
2023-03-28T19:59:23.153Z,3.20
2023-03-28T20:02:26.472Z,3.19
2023-03-28T20:05:29.504Z,3.04
2023-03-28T20:08:32.806Z,2.90
2023-03-28T20:11:37.897Z,2.93
2023-03-28T20:14:40.787Z,2.90
2023-03-28T20:17:43.850Z,2.78
2023-03-28T20:20:51.964Z,2.66
2023-03-28T20:23:55.256Z,2.47
2023-03-28T20:26:58.310Z,2.38
2023-03-28T20:30:01.495Z,2.20
2023-03-28T20:33:04.361Z,1.92
2023-03-28T20:36:07.815Z,1.94
2023-03-28T20:39:10.542Z,2.06
2023-03-28T20:42:13.629Z,1.98
2023-03-28T20:45:22.073Z,1.86
2023-03-28T20:48:34.930Z,1.80
2023-03-28T20:51:39.426Z,1.64
2023-03-28T20:54:42.332Z,1.57
2023-03-28T20:57:44.872Z,1.33
2023-03-28T21:00:47.739Z,1.15
2023-03-28T21:03:51.051Z,1.07
2023-03-28T21:06:55.221Z,0.96
2023-03-28T21:09:59.925Z,0.98
2023-03-28T21:13:02.681Z,1.10
2023-03-28T21:16:05.961Z,1.10
2023-03-28T21:19:09.334Z,0.91
2023-03-28T21:22:12.206Z,0.76
2023-03-28T21:25:15.339Z,0.60
2023-03-28T21:28:17.776Z,0.56
2023-03-28T21:31:24.713Z,0.40
2023-03-28T21:34:36.683Z,0.22
2023-03-28T21:37:39.394Z,0.13
2023-03-28T21:40:41.960Z,0.08
2023-03-28T21:43:44.879Z,0.02
2023-03-28T21:46:47.539Z,0.06
2023-03-28T21:49:50.546Z,0.30
2023-03-28T21:52:52.987Z,0.20
2023-03-28T21:55:56.385Z,0.32
2023-03-28T21:58:59.097Z,0.18
2023-03-28T22:02:02.073Z,-0.06
2023-03-28T22:05:10.687Z,-0.07
2023-03-28T22:08:22.186Z,-0.16
2023-03-28T22:11:29.948Z,-0.27
2023-03-28T22:14:33.642Z,-0.28
2023-03-28T22:17:38.448Z,-0.36
2023-03-28T22:20:43.647Z,-0.49
2023-03-28T22:23:49.776Z,-0.40
2023-03-28T22:26:52.304Z,-0.33
2023-03-28T22:29:55.333Z,-0.25
2023-03-28T22:32:58.172Z,-0.02
2023-03-28T22:36:01.183Z,0.15
2023-03-28T22:39:04.060Z,0.22
2023-03-28T22:42:08.592Z,0.04
2023-03-28T22:45:11.242Z,0.15
2023-03-28T22:48:17.108Z,0.12
2023-03-28T22:51:20.869Z,0.05
2023-03-28T22:54:23.722Z,-0.02
2023-03-28T22:57:26.432Z,-0.10
2023-03-28T23:00:29.270Z,-0.30
2023-03-28T23:03:32.520Z,-0.51
2023-03-28T23:06:36.167Z,-0.70
2023-03-28T23:09:38.567Z,-0.86
2023-03-28T23:12:42.682Z,-0.99
2023-03-28T23:15:45.304Z,-1.12
2023-03-28T23:18:50.036Z,-1.22
2023-03-28T23:21:54.714Z,-1.39
2023-03-28T23:24:57.638Z,-1.51
2023-03-28T23:28:00.541Z,-1.51
2023-03-28T23:31:03.979Z,-1.55
2023-03-28T23:34:07.324Z,-1.64
2023-03-28T23:37:10.113Z,-1.49
2023-03-28T23:40:16.253Z,-1.34
2023-03-28T23:43:19.298Z,-1.55
2023-03-28T23:46:22.343Z,-1.56
2023-03-28T23:49:25.363Z,-1.62
2023-03-28T23:52:27.860Z,-1.69
2023-03-28T23:55:31.396Z,-1.89
2023-03-28T23:58:34.174Z,-1.92
